sensor_id;sensor_type;location;lat;lon;timestamp;P1;durP1;ratioP1;P2;durP2;ratioP2
12165;SDS011;6146;48.128;11.476;2024-03-02T00:00:51;11.73;;;10.53;;
12165;SDS011;6146;48.128;11.476;2024-03-02T00:03:17;11.87;;;10.67;;
12165;SDS011;6146;48.128;11.476;2024-03-02T00:05:43;10.37;;;9.20;;
12165;SDS011;6146;48.128;11.476;2024-03-02T00:08:13;10.47;;;9.37;;
12165;SDS011;6146;48.128;11.476;2024-03-02T00:10:50;11.57;;;9.33;;
12165;SDS011;6146;48.128;11.476;2024-03-02T00:13:16;10.60;;;9.47;;
12165;SDS011;6146;48.128;11.476;2024-03-02T00:15:48;11.10;;;10.00;;
12165;SDS011;6146;48.128;11.476;2024-03-02T00:18:35;11.43;;;9.27;;
12165;SDS011;6146;48.128;11.476;2024-03-02T00:21:02;9.50;;;8.43;;
12165;SDS011;6146;48.128;11.476;2024-03-02T00:23:31;12.60;;;9.90;;
12165;SDS011;6146;48.128;11.476;2024-03-02T00:25:58;10.83;;;9.73;;
12165;SDS011;6146;48.128;11.476;2024-03-02T00:33:32;11.63;;;10.40;;
12165;SDS011;6146;48.128;11.476;2024-03-02T00:36:04;11.70;;;10.07;;
12165;SDS011;6146;48.128;11.476;2024-03-02T00:38:31;12.37;;;10.87;;
12165;SDS011;6146;48.128;11.476;2024-03-02T00:40:58;12.97;;;10.80;;
12165;SDS011;6146;48.128;11.476;2024-03-02T00:43:44;12.23;;;10.93;;
12165;SDS011;6146;48.128;11.476;2024-03-02T00:46:23;13.90;;;11.33;;
12165;SDS011;6146;48.128;11.476;2024-03-02T00:51:20;13.53;;;11.80;;
12165;SDS011;6146;48.128;11.476;2024-03-02T00:53:47;12.87;;;11.57;;
12165;SDS011;6146;48.128;11.476;2024-03-02T00:56:12;13.07;;;11.73;;
12165;SDS011;6146;48.128;11.476;2024-03-02T00:58:39;13.37;;;11.97;;
12165;SDS011;6146;48.128;11.476;2024-03-02T01:01:05;13.47;;;12.03;;
12165;SDS011;6146;48.128;11.476;2024-03-02T01:03:31;13.73;;;12.27;;
12165;SDS011;6146;48.128;11.476;2024-03-02T01:05:57;12.80;;;11.60;;
12165;SDS011;6146;48.128;11.476;2024-03-02T01:08:23;13.07;;;11.77;;
12165;SDS011;6146;48.128;11.476;2024-03-02T01:10:49;13.03;;;11.43;;
12165;SDS011;6146;48.128;11.476;2024-03-02T01:13:15;13.43;;;11.60;;
12165;SDS011;6146;48.128;11.476;2024-03-02T01:15:40;13.40;;;11.63;;
12165;SDS011;6146;48.128;11.476;2024-03-02T01:18:06;13.30;;;11.77;;
12165;SDS011;6146;48.128;11.476;2024-03-02T01:20:31;14.13;;;11.70;;
12165;SDS011;6146;48.128;11.476;2024-03-02T01:22:57;13.00;;;11.60;;
12165;SDS011;6146;48.128;11.476;2024-03-02T01:25:23;15.00;;;11.90;;
12165;SDS011;6146;48.128;11.476;2024-03-02T01:27:48;12.80;;;11.20;;
12165;SDS011;6146;48.128;11.476;2024-03-02T01:30:14;14.57;;;11.90;;
12165;SDS011;6146;48.128;11.476;2024-03-02T01:32:39;13.67;;;12.07;;
12165;SDS011;6146;48.128;11.476;2024-03-02T01:35:05;15.03;;;12.57;;
12165;SDS011;6146;48.128;11.476;2024-03-02T01:37:32;15.83;;;12.73;;
12165;SDS011;6146;48.128;11.476;2024-03-02T01:39:57;13.63;;;12.13;;
12165;SDS011;6146;48.128;11.476;2024-03-02T01:42:23;18.00;;;13.17;;
12165;SDS011;6146;48.128;11.476;2024-03-02T01:44:49;15.73;;;12.73;;
12165;SDS011;6146;48.128;11.476;2024-03-02T01:47:14;14.13;;;11.53;;
12165;SDS011;6146;48.128;11.476;2024-03-02T01:49:40;14.77;;;12.53;;
12165;SDS011;6146;48.128;11.476;2024-03-02T01:52:06;13.00;;;10.97;;
12165;SDS011;6146;48.128;11.476;2024-03-02T01:54:32;12.30;;;11.00;;
12165;SDS011;6146;48.128;11.476;2024-03-02T01:56:58;12.50;;;11.20;;
12165;SDS011;6146;48.128;11.476;2024-03-02T01:59:24;12.07;;;10.77;;
12165;SDS011;6146;48.128;11.476;2024-03-02T02:01:49;11.90;;;10.70;;
12165;SDS011;6146;48.128;11.476;2024-03-02T02:04:15;12.17;;;10.87;;
12165;SDS011;6146;48.128;11.476;2024-03-02T02:06:40;12.23;;;10.70;;
12165;SDS011;6146;48.128;11.476;2024-03-02T02:09:07;11.30;;;9.57;;
12165;SDS011;6146;48.128;11.476;2024-03-02T02:11:33;11.60;;;10.30;;
12165;SDS011;6146;48.128;11.476;2024-03-02T02:13:59;11.43;;;10.23;;
12165;SDS011;6146;48.128;11.476;2024-03-02T02:16:25;13.73;;;10.40;;
12165;SDS011;6146;48.128;11.476;2024-03-02T02:18:50;13.00;;;10.80;;
12165;SDS011;6146;48.128;11.476;2024-03-02T02:21:16;10.50;;;9.50;;
12165;SDS011;6146;48.128;11.476;2024-03-02T02:23:41;11.03;;;9.77;;
12165;SDS011;6146;48.128;11.476;2024-03-02T02:26:11;11.33;;;9.80;;
12165;SDS011;6146;48.128;11.476;2024-03-02T02:28:37;11.70;;;9.80;;
12165;SDS011;6146;48.128;11.476;2024-03-02T02:31:02;11.00;;;9.90;;
12165;SDS011;6146;48.128;11.476;2024-03-02T02:33:28;10.30;;;9.30;;
12165;SDS011;6146;48.128;11.476;2024-03-02T02:35:54;10.50;;;8.90;;
12165;SDS011;6146;48.128;11.476;2024-03-02T02:38:19;9.30;;;8.40;;
12165;SDS011;6146;48.128;11.476;2024-03-02T02:40:45;10.87;;;8.80;;
12165;SDS011;6146;48.128;11.476;2024-03-02T02:43:11;10.03;;;9.03;;
12165;SDS011;6146;48.128;11.476;2024-03-02T02:45:36;9.67;;;8.67;;
12165;SDS011;6146;48.128;11.476;2024-03-02T02:48:02;11.37;;;9.70;;
12165;SDS011;6146;48.128;11.476;2024-03-02T02:50:28;10.10;;;9.03;;
12165;SDS011;6146;48.128;11.476;2024-03-02T02:52:53;10.63;;;9.63;;
12165;SDS011;6146;48.128;11.476;2024-03-02T02:55:19;11.27;;;10.17;;
12165;SDS011;6146;48.128;11.476;2024-03-02T02:57:45;10.47;;;9.37;;
12165;SDS011;6146;48.128;11.476;2024-03-02T03:00:12;10.33;;;9.30;;
12165;SDS011;6146;48.128;11.476;2024-03-02T03:02:40;10.87;;;9.03;;
12165;SDS011;6146;48.128;11.476;2024-03-02T03:05:07;10.67;;;9.17;;
12165;SDS011;6146;48.128;11.476;2024-03-02T03:07:36;11.13;;;10.03;;
12165;SDS011;6146;48.128;11.476;2024-03-02T03:10:04;10.33;;;9.23;;
12165;SDS011;6146;48.128;11.476;2024-03-02T03:12:31;10.50;;;9.10;;
12165;SDS011;6146;48.128;11.476;2024-03-02T03:14:57;10.50;;;9.40;;
12165;SDS011;6146;48.128;11.476;2024-03-02T03:17:23;11.57;;;10.00;;
12165;SDS011;6146;48.128;11.476;2024-03-02T03:19:49;10.87;;;9.77;;
12165;SDS011;6146;48.128;11.476;2024-03-02T03:22:15;11.80;;;9.73;;
12165;SDS011;6146;48.128;11.476;2024-03-02T03:24:41;11.07;;;9.97;;
12165;SDS011;6146;48.128;11.476;2024-03-02T03:27:07;12.37;;;10.53;;
12165;SDS011;6146;48.128;11.476;2024-03-02T03:29:32;11.93;;;10.43;;
12165;SDS011;6146;48.128;11.476;2024-03-02T03:31:58;11.20;;;10.00;;
12165;SDS011;6146;48.128;11.476;2024-03-02T03:34:23;12.30;;;10.20;;
12165;SDS011;6146;48.128;11.476;2024-03-02T03:36:49;12.87;;;11.03;;
12165;SDS011;6146;48.128;11.476;2024-03-02T03:39:15;13.20;;;11.80;;
12165;SDS011;6146;48.128;11.476;2024-03-02T03:41:40;13.93;;;11.57;;
12165;SDS011;6146;48.128;11.476;2024-03-02T03:44:06;16.17;;;12.67;;
12165;SDS011;6146;48.128;11.476;2024-03-02T03:46:31;14.53;;;12.23;;
12165;SDS011;6146;48.128;11.476;2024-03-02T03:48:57;14.47;;;12.50;;
12165;SDS011;6146;48.128;11.476;2024-03-02T03:51:22;15.60;;;12.90;;
12165;SDS011;6146;48.128;11.476;2024-03-02T03:53:48;14.27;;;12.77;;
12165;SDS011;6146;48.128;11.476;2024-03-02T03:56:14;14.80;;;12.47;;
12165;SDS011;6146;48.128;11.476;2024-03-02T03:58:39;16.60;;;13.97;;
12165;SDS011;6146;48.128;11.476;2024-03-02T04:01:05;15.23;;;12.97;;
12165;SDS011;6146;48.128;11.476;2024-03-02T04:03:31;15.43;;;13.37;;
12165;SDS011;6146;48.128;11.476;2024-03-02T04:05:56;15.97;;;13.67;;
12165;SDS011;6146;48.128;11.476;2024-03-02T04:08:22;15.57;;;13.17;;
12165;SDS011;6146;48.128;11.476;2024-03-02T04:10:47;15.57;;;13.10;;
12165;SDS011;6146;48.128;11.476;2024-03-02T04:13:13;14.53;;;12.57;;
12165;SDS011;6146;48.128;11.476;2024-03-02T04:15:39;15.23;;;12.80;;
12165;SDS011;6146;48.128;11.476;2024-03-02T04:18:05;14.87;;;13.03;;
12165;SDS011;6146;48.128;11.476;2024-03-02T04:20:31;13.93;;;12.43;;
12165;SDS011;6146;48.128;11.476;2024-03-02T04:22:57;16.67;;;13.50;;
12165;SDS011;6146;48.128;11.476;2024-03-02T04:25:22;15.13;;;12.87;;
12165;SDS011;6146;48.128;11.476;2024-03-02T04:27:48;15.13;;;13.17;;
12165;SDS011;6146;48.128;11.476;2024-03-02T04:30:13;14.43;;;12.60;;
12165;SDS011;6146;48.128;11.476;2024-03-02T04:32:40;15.47;;;12.73;;
12165;SDS011;6146;48.128;11.476;2024-03-02T04:35:06;14.90;;;12.30;;
12165;SDS011;6146;48.128;11.476;2024-03-02T04:37:35;15.33;;;12.60;;
12165;SDS011;6146;48.128;11.476;2024-03-02T04:40:00;14.73;;;12.83;;
12165;SDS011;6146;48.128;11.476;2024-03-02T04:42:26;13.70;;;12.07;;
12165;SDS011;6146;48.128;11.476;2024-03-02T04:44:51;15.17;;;13.50;;
12165;SDS011;6146;48.128;11.476;2024-03-02T04:47:17;15.30;;;13.07;;
12165;SDS011;6146;48.128;11.476;2024-03-02T04:49:42;14.27;;;12.70;;
12165;SDS011;6146;48.128;11.476;2024-03-02T04:52:08;14.77;;;12.47;;
12165;SDS011;6146;48.128;11.476;2024-03-02T04:54:34;15.43;;;12.40;;
12165;SDS011;6146;48.128;11.476;2024-03-02T04:57:19;15.63;;;13.57;;
12165;SDS011;6146;48.128;11.476;2024-03-02T04:59:45;18.47;;;14.77;;
12165;SDS011;6146;48.128;11.476;2024-03-02T05:02:10;16.77;;;14.20;;
12165;SDS011;6146;48.128;11.476;2024-03-02T05:04:38;15.70;;;14.00;;
12165;SDS011;6146;48.128;11.476;2024-03-02T05:07:04;17.53;;;13.30;;
12165;SDS011;6146;48.128;11.476;2024-03-02T05:09:29;15.13;;;13.17;;
12165;SDS011;6146;48.128;11.476;2024-03-02T05:11:55;15.97;;;13.73;;
12165;SDS011;6146;48.128;11.476;2024-03-02T05:14:29;15.83;;;13.27;;
12165;SDS011;6146;48.128;11.476;2024-03-02T05:16:55;15.77;;;13.77;;
12165;SDS011;6146;48.128;11.476;2024-03-02T05:19:20;14.60;;;12.90;;
12165;SDS011;6146;48.128;11.476;2024-03-02T05:21:46;16.27;;;13.67;;
12165;SDS011;6146;48.128;11.476;2024-03-02T05:24:12;14.43;;;12.83;;
12165;SDS011;6146;48.128;11.476;2024-03-02T05:26:37;15.43;;;13.30;;
12165;SDS011;6146;48.128;11.476;2024-03-02T05:29:03;14.73;;;13.23;;
12165;SDS011;6146;48.128;11.476;2024-03-02T05:31:28;14.93;;;13.17;;
12165;SDS011;6146;48.128;11.476;2024-03-02T05:33:54;15.37;;;13.30;;
12165;SDS011;6146;48.128;11.476;2024-03-02T05:36:20;14.83;;;12.83;;
12165;SDS011;6146;48.128;11.476;2024-03-02T05:38:46;14.23;;;12.73;;
12165;SDS011;6146;48.128;11.476;2024-03-02T05:41:11;15.77;;;12.73;;
12165;SDS011;6146;48.128;11.476;2024-03-02T05:43:37;14.60;;;11.83;;
12165;SDS011;6146;48.128;11.476;2024-03-02T05:46:02;14.00;;;12.23;;
12165;SDS011;6146;48.128;11.476;2024-03-02T05:48:28;15.73;;;12.97;;
12165;SDS011;6146;48.128;11.476;2024-03-02T05:50:54;15.93;;;13.20;;
12165;SDS011;6146;48.128;11.476;2024-03-02T05:53:19;16.87;;;14.03;;
12165;SDS011;6146;48.128;11.476;2024-03-02T05:55:45;16.30;;;13.80;;
12165;SDS011;6146;48.128;11.476;2024-03-02T05:58:10;16.60;;;14.03;;
12165;SDS011;6146;48.128;11.476;2024-03-02T06:00:54;17.37;;;14.03;;
12165;SDS011;6146;48.128;11.476;2024-03-02T06:03:20;16.50;;;13.67;;
12165;SDS011;6146;48.128;11.476;2024-03-02T06:05:45;15.80;;;13.60;;
12165;SDS011;6146;48.128;11.476;2024-03-02T06:08:14;17.10;;;12.63;;
12165;SDS011;6146;48.128;11.476;2024-03-02T06:10:39;14.57;;;13.00;;
12165;SDS011;6146;48.128;11.476;2024-03-02T06:13:05;17.83;;;13.87;;
12165;SDS011;6146;48.128;11.476;2024-03-02T06:15:30;18.73;;;14.83;;
12165;SDS011;6146;48.128;11.476;2024-03-02T06:17:56;16.23;;;13.40;;
12165;SDS011;6146;48.128;11.476;2024-03-02T06:20:22;16.63;;;13.97;;
12165;SDS011;6146;48.128;11.476;2024-03-02T06:22:47;18.30;;;15.30;;
12165;SDS011;6146;48.128;11.476;2024-03-02T06:25:13;17.93;;;14.93;;
12165;SDS011;6146;48.128;11.476;2024-03-02T06:27:38;18.40;;;14.10;;
12165;SDS011;6146;48.128;11.476;2024-03-02T06:30:04;18.23;;;15.17;;
12165;SDS011;6146;48.128;11.476;2024-03-02T06:32:30;20.03;;;15.87;;
12165;SDS011;6146;48.128;11.476;2024-03-02T06:34:56;18.63;;;14.83;;
12165;SDS011;6146;48.128;11.476;2024-03-02T06:37:21;17.03;;;13.90;;
12165;SDS011;6146;48.128;11.476;2024-03-02T06:39:47;18.17;;;14.57;;
12165;SDS011;6146;48.128;11.476;2024-03-02T06:42:12;17.83;;;15.50;;
12165;SDS011;6146;48.128;11.476;2024-03-02T06:44:38;16.33;;;13.50;;
12165;SDS011;6146;48.128;11.476;2024-03-02T06:47:03;17.17;;;14.33;;
12165;SDS011;6146;48.128;11.476;2024-03-02T06:49:29;18.40;;;15.30;;
12165;SDS011;6146;48.128;11.476;2024-03-02T06:51:55;19.73;;;15.77;;
12165;SDS011;6146;48.128;11.476;2024-03-02T06:54:20;20.27;;;16.43;;
12165;SDS011;6146;48.128;11.476;2024-03-02T06:56:46;19.93;;;16.53;;
12165;SDS011;6146;48.128;11.476;2024-03-02T06:59:12;19.27;;;16.17;;
12165;SDS011;6146;48.128;11.476;2024-03-02T07:01:37;19.73;;;16.20;;
12165;SDS011;6146;48.128;11.476;2024-03-02T07:04:03;18.70;;;15.40;;
12165;SDS011;6146;48.128;11.476;2024-03-02T07:06:31;18.93;;;16.40;;
12165;SDS011;6146;48.128;11.476;2024-03-02T07:08:57;22.13;;;16.87;;
12165;SDS011;6146;48.128;11.476;2024-03-02T07:11:22;18.07;;;16.17;;
12165;SDS011;6146;48.128;11.476;2024-03-02T07:13:48;19.23;;;16.03;;
12165;SDS011;6146;48.128;11.476;2024-03-02T07:16:13;18.77;;;16.57;;
12165;SDS011;6146;48.128;11.476;2024-03-02T07:18:57;20.10;;;17.30;;
12165;SDS011;6146;48.128;11.476;2024-03-02T07:21:24;22.17;;;17.90;;
12165;SDS011;6146;48.128;11.476;2024-03-02T07:23:50;20.40;;;18.20;;
12165;SDS011;6146;48.128;11.476;2024-03-02T07:26:16;18.13;;;16.23;;
12165;SDS011;6146;48.128;11.476;2024-03-02T07:28:43;21.40;;;17.13;;
12165;SDS011;6146;48.128;11.476;2024-03-02T07:31:10;17.87;;;15.53;;
12165;SDS011;6146;48.128;11.476;2024-03-02T07:33:36;21.67;;;17.57;;
12165;SDS011;6146;48.128;11.476;2024-03-02T07:36:01;16.83;;;14.17;;
12165;SDS011;6146;48.128;11.476;2024-03-02T07:38:28;16.97;;;14.07;;
12165;SDS011;6146;48.128;11.476;2024-03-02T07:40:54;15.10;;;12.53;;
12165;SDS011;6146;48.128;11.476;2024-03-02T07:43:20;12.93;;;11.60;;
12165;SDS011;6146;48.128;11.476;2024-03-02T07:45:46;13.67;;;12.13;;
12165;SDS011;6146;48.128;11.476;2024-03-02T07:48:12;14.60;;;11.93;;
12165;SDS011;6146;48.128;11.476;2024-03-02T07:50:37;13.07;;;11.40;;
12165;SDS011;6146;48.128;11.476;2024-03-02T07:53:04;13.23;;;11.83;;
12165;SDS011;6146;48.128;11.476;2024-03-02T07:55:30;14.60;;;11.60;;
12165;SDS011;6146;48.128;11.476;2024-03-02T07:57:56;12.60;;;11.30;;
12165;SDS011;6146;48.128;11.476;2024-03-02T08:00:22;11.33;;;10.13;;
12165;SDS011;6146;48.128;11.476;2024-03-02T08:02:48;11.40;;;10.27;;
12165;SDS011;6146;48.128;11.476;2024-03-02T08:05:15;10.17;;;9.17;;
12165;SDS011;6146;48.128;11.476;2024-03-02T08:07:41;9.40;;;8.40;;
12165;SDS011;6146;48.128;11.476;2024-03-02T08:10:09;10.00;;;9.00;;
12165;SDS011;6146;48.128;11.476;2024-03-02T08:12:35;9.77;;;8.43;;
12165;SDS011;6146;48.128;11.476;2024-03-02T08:15:00;8.67;;;7.87;;
12165;SDS011;6146;48.128;11.476;2024-03-02T08:17:26;10.20;;;9.20;;
12165;SDS011;6146;48.128;11.476;2024-03-02T08:19:52;8.40;;;7.60;;
12165;SDS011;6146;48.128;11.476;2024-03-02T08:22:17;8.10;;;7.30;;
12165;SDS011;6146;48.128;11.476;2024-03-02T08:24:43;7.50;;;6.77;;
12165;SDS011;6146;48.128;11.476;2024-03-02T08:27:09;8.50;;;7.70;;
12165;SDS011;6146;48.128;11.476;2024-03-02T08:29:34;7.40;;;6.70;;
12165;SDS011;6146;48.128;11.476;2024-03-02T08:32:00;8.50;;;7.57;;
12165;SDS011;6146;48.128;11.476;2024-03-02T08:34:26;7.73;;;7.03;;
12165;SDS011;6146;48.128;11.476;2024-03-02T08:36:51;8.00;;;7.20;;
12165;SDS011;6146;48.128;11.476;2024-03-02T08:39:17;7.67;;;7.03;;
12165;SDS011;6146;48.128;11.476;2024-03-02T08:41:44;7.57;;;6.87;;
12165;SDS011;6146;48.128;11.476;2024-03-02T08:44:10;9.13;;;8.33;;
12165;SDS011;6146;48.128;11.476;2024-03-02T08:46:37;7.77;;;7.00;;
12165;SDS011;6146;48.128;11.476;2024-03-02T08:49:03;7.93;;;7.20;;
12165;SDS011;6146;48.128;11.476;2024-03-02T08:51:29;7.30;;;6.60;;
12165;SDS011;6146;48.128;11.476;2024-03-02T08:53:55;7.07;;;6.47;;
12165;SDS011;6146;48.128;11.476;2024-03-02T08:56:21;6.53;;;5.90;;
12165;SDS011;6146;48.128;11.476;2024-03-02T08:58:48;5.60;;;5.10;;
12165;SDS011;6146;48.128;11.476;2024-03-02T09:01:14;6.13;;;5.63;;
12165;SDS011;6146;48.128;11.476;2024-03-02T09:03:41;5.70;;;5.20;;
12165;SDS011;6146;48.128;11.476;2024-03-02T09:06:09;6.70;;;6.10;;
12165;SDS011;6146;48.128;11.476;2024-03-02T09:08:35;5.72;;;5.22;;
12165;SDS011;6146;48.128;11.476;2024-03-02T09:11:02;5.40;;;5.00;;
12165;SDS011;6146;48.128;11.476;2024-03-02T09:13:28;5.35;;;4.88;;
12165;SDS011;6146;48.128;11.476;2024-03-02T09:15:54;6.13;;;5.55;;
12165;SDS011;6146;48.128;11.476;2024-03-02T09:18:20;6.32;;;5.45;;
12165;SDS011;6146;48.128;11.476;2024-03-02T09:20:45;6.32;;;5.70;;
12165;SDS011;6146;48.128;11.476;2024-03-02T09:23:11;5.68;;;5.18;;
12165;SDS011;6146;48.128;11.476;2024-03-02T09:25:36;5.47;;;4.97;;
12165;SDS011;6146;48.128;11.476;2024-03-02T09:28:02;6.65;;;5.95;;
12165;SDS011;6146;48.128;11.476;2024-03-02T09:30:28;6.28;;;5.68;;
12165;SDS011;6146;48.128;11.476;2024-03-02T09:32:53;6.70;;;6.03;;
12165;SDS011;6146;48.128;11.476;2024-03-02T09:35:19;6.80;;;6.20;;
12165;SDS011;6146;48.128;11.476;2024-03-02T09:37:45;8.77;;;7.97;;
12165;SDS011;6146;48.128;11.476;2024-03-02T09:40:11;7.57;;;6.87;;
12165;SDS011;6146;48.128;11.476;2024-03-02T09:42:37;8.50;;;7.70;;
12165;SDS011;6146;48.128;11.476;2024-03-02T09:45:04;7.77;;;7.07;;
12165;SDS011;6146;48.128;11.476;2024-03-02T09:47:31;8.00;;;7.20;;
12165;SDS011;6146;48.128;11.476;2024-03-02T09:49:56;9.23;;;8.33;;
12165;SDS011;6146;48.128;11.476;2024-03-02T09:52:22;10.37;;;9.33;;
12165;SDS011;6146;48.128;11.476;2024-03-02T09:54:48;10.97;;;9.93;;
12165;SDS011;6146;48.128;11.476;2024-03-02T09:57:14;11.40;;;10.27;;
12165;SDS011;6146;48.128;11.476;2024-03-02T09:59:40;12.40;;;11.20;;
12165;SDS011;6146;48.128;11.476;2024-03-02T10:02:06;12.03;;;10.87;;
12165;SDS011;6146;48.128;11.476;2024-03-02T10:04:32;10.60;;;9.60;;
12165;SDS011;6146;48.128;11.476;2024-03-02T10:09:36;10.13;;;9.13;;
12165;SDS011;6146;48.128;11.476;2024-03-02T10:12:05;9.17;;;8.30;;
12165;SDS011;6146;48.128;11.476;2024-03-02T10:14:33;10.10;;;9.10;;
12165;SDS011;6146;48.128;11.476;2024-03-02T10:17:02;9.67;;;8.67;;
12165;SDS011;6146;48.128;11.476;2024-03-02T10:19:32;9.23;;;8.33;;
12165;SDS011;6146;48.128;11.476;2024-03-02T10:21:58;10.30;;;9.20;;
12165;SDS011;6146;48.128;11.476;2024-03-02T10:24:24;9.63;;;8.63;;
12165;SDS011;6146;48.128;11.476;2024-03-02T10:26:50;8.87;;;8.00;;
12165;SDS011;6146;48.128;11.476;2024-03-02T10:29:17;8.70;;;7.83;;
12165;SDS011;6146;48.128;11.476;2024-03-02T10:31:44;7.20;;;6.50;;
12165;SDS011;6146;48.128;11.476;2024-03-02T10:34:13;6.97;;;6.27;;
12165;SDS011;6146;48.128;11.476;2024-03-02T10:36:42;7.13;;;6.43;;
12165;SDS011;6146;48.128;11.476;2024-03-02T10:39:09;7.17;;;6.47;;
12165;SDS011;6146;48.128;11.476;2024-03-02T10:41:36;6.40;;;5.73;;
12165;SDS011;6146;48.128;11.476;2024-03-02T10:44:04;6.57;;;5.90;;
12165;SDS011;6146;48.128;11.476;2024-03-02T10:46:31;6.47;;;5.87;;
12165;SDS011;6146;48.128;11.476;2024-03-02T10:48:58;6.07;;;5.47;;
12165;SDS011;6146;48.128;11.476;2024-03-02T10:51:25;6.03;;;5.43;;
12165;SDS011;6146;48.128;11.476;2024-03-02T10:53:57;6.17;;;5.57;;
12165;SDS011;6146;48.128;11.476;2024-03-02T10:56:33;4.93;;;4.43;;
12165;SDS011;6146;48.128;11.476;2024-03-02T10:59:17;4.50;;;4.10;;
12165;SDS011;6146;48.128;11.476;2024-03-02T11:01:56;5.43;;;4.93;;
12165;SDS011;6146;48.128;11.476;2024-03-02T11:04:26;5.03;;;4.60;;
12165;SDS011;6146;48.128;11.476;2024-03-02T11:07:00;4.30;;;3.90;;
12165;SDS011;6146;48.128;11.476;2024-03-02T11:09:33;4.67;;;4.27;;
12165;SDS011;6146;48.128;11.476;2024-03-02T11:12:06;5.60;;;5.10;;
12165;SDS011;6146;48.128;11.476;2024-03-02T11:14:52;4.63;;;4.20;;
12165;SDS011;6146;48.128;11.476;2024-03-02T11:17:20;4.80;;;4.30;;
12165;SDS011;6146;48.128;11.476;2024-03-02T11:19:46;4.50;;;4.10;;
12165;SDS011;6146;48.128;11.476;2024-03-02T11:22:13;4.13;;;3.73;;
12165;SDS011;6146;48.128;11.476;2024-03-02T11:24:40;4.30;;;3.87;;
12165;SDS011;6146;48.128;11.476;2024-03-02T11:27:13;5.93;;;4.43;;
12165;SDS011;6146;48.128;11.476;2024-03-02T11:34:40;5.67;;;4.33;;
12165;SDS011;6146;48.128;11.476;2024-03-02T11:37:11;6.00;;;5.20;;
12165;SDS011;6146;48.128;11.476;2024-03-02T11:39:40;4.97;;;4.50;;
12165;SDS011;6146;48.128;11.476;2024-03-02T11:42:07;6.20;;;5.20;;
12165;SDS011;6146;48.128;11.476;2024-03-02T11:44:35;6.73;;;5.97;;
12165;SDS011;6146;48.128;11.476;2024-03-02T11:47:05;7.03;;;6.30;;
12165;SDS011;6146;48.128;11.476;2024-03-02T11:49:42;7.97;;;6.27;;
12165;SDS011;6146;48.128;11.476;2024-03-02T11:52:12;7.87;;;7.07;;
12165;SDS011;6146;48.128;11.476;2024-03-02T11:54:41;8.70;;;7.80;;
12165;SDS011;6146;48.128;11.476;2024-03-02T11:57:19;9.67;;;8.67;;
12165;SDS011;6146;48.128;11.476;2024-03-02T11:59:47;12.10;;;9.50;;
12165;SDS011;6146;48.128;11.476;2024-03-02T12:02:18;9.57;;;8.57;;
12165;SDS011;6146;48.128;11.476;2024-03-02T12:04:45;10.37;;;8.50;;
12165;SDS011;6146;48.128;11.476;2024-03-02T12:07:12;9.07;;;8.13;;
12165;SDS011;6146;48.128;11.476;2024-03-02T12:09:47;9.80;;;8.20;;
12165;SDS011;6146;48.128;11.476;2024-03-02T12:12:13;8.30;;;7.10;;
12165;SDS011;6146;48.128;11.476;2024-03-02T12:14:49;8.37;;;7.23;;
12165;SDS011;6146;48.128;11.476;2024-03-02T12:17:16;10.27;;;8.37;;
12165;SDS011;6146;48.128;11.476;2024-03-02T12:19:41;9.47;;;8.10;;
12165;SDS011;6146;48.128;11.476;2024-03-02T12:22:07;7.87;;;7.07;;
12165;SDS011;6146;48.128;11.476;2024-03-02T12:24:32;9.40;;;8.27;;
12165;SDS011;6146;48.128;11.476;2024-03-02T12:26:58;8.53;;;7.43;;
12165;SDS011;6146;48.128;11.476;2024-03-02T12:29:24;7.90;;;7.10;;
12165;SDS011;6146;48.128;11.476;2024-03-02T12:31:50;10.20;;;8.17;;
12165;SDS011;6146;48.128;11.476;2024-03-02T12:34:20;7.67;;;6.87;;
12165;SDS011;6146;48.128;11.476;2024-03-02T12:36:46;10.53;;;8.00;;
12165;SDS011;6146;48.128;11.476;2024-03-02T12:39:14;9.17;;;8.27;;
12165;SDS011;6146;48.128;11.476;2024-03-02T12:41:49;9.47;;;8.47;;
12165;SDS011;6146;48.128;11.476;2024-03-02T12:44:16;9.23;;;8.33;;
12165;SDS011;6146;48.128;11.476;2024-03-02T12:46:42;8.60;;;7.80;;
12165;SDS011;6146;48.128;11.476;2024-03-02T12:49:09;8.07;;;7.27;;
12165;SDS011;6146;48.128;11.476;2024-03-02T12:51:36;8.20;;;6.93;;
12165;SDS011;6146;48.128;11.476;2024-03-02T12:54:02;10.37;;;8.97;;
12165;SDS011;6146;48.128;11.476;2024-03-02T12:56:28;11.17;;;8.90;;
12165;SDS011;6146;48.128;11.476;2024-03-02T12:58:54;10.87;;;9.57;;
12165;SDS011;6146;48.128;11.476;2024-03-02T13:01:20;11.00;;;9.73;;
12165;SDS011;6146;48.128;11.476;2024-03-02T13:03:49;11.27;;;10.07;;
12165;SDS011;6146;48.128;11.476;2024-03-02T13:06:19;11.93;;;10.73;;
12165;SDS011;6146;48.128;11.476;2024-03-02T13:08:45;12.90;;;11.53;;
12165;SDS011;6146;48.128;11.476;2024-03-02T13:11:11;11.70;;;10.50;;
12165;SDS011;6146;48.128;11.476;2024-03-02T13:13:38;11.70;;;10.00;;
12165;SDS011;6146;48.128;11.476;2024-03-02T13:16:07;12.90;;;11.53;;
12165;SDS011;6146;48.128;11.476;2024-03-02T13:18:35;13.10;;;11.57;;
12165;SDS011;6146;48.128;11.476;2024-03-02T13:21:03;12.40;;;10.83;;
12165;SDS011;6146;48.128;11.476;2024-03-02T13:23:29;12.30;;;11.00;;
12165;SDS011;6146;48.128;11.476;2024-03-02T13:25:57;12.40;;;10.63;;
12165;SDS011;6146;48.128;11.476;2024-03-02T13:28:26;11.37;;;10.23;;
12165;SDS011;6146;48.128;11.476;2024-03-02T13:30:52;11.70;;;10.00;;
12165;SDS011;6146;48.128;11.476;2024-03-02T13:33:18;12.10;;;10.80;;
12165;SDS011;6146;48.128;11.476;2024-03-02T13:35:49;13.53;;;11.80;;
12165;SDS011;6146;48.128;11.476;2024-03-02T13:38:16;12.27;;;11.00;;
12165;SDS011;6146;48.128;11.476;2024-03-02T13:40:43;12.33;;;11.03;;
12165;SDS011;6146;48.128;11.476;2024-03-02T13:43:08;14.53;;;11.30;;
12165;SDS011;6146;48.128;11.476;2024-03-02T13:45:34;11.77;;;10.53;;
12165;SDS011;6146;48.128;11.476;2024-03-02T13:48:00;12.67;;;10.97;;
12165;SDS011;6146;48.128;11.476;2024-03-02T13:50:27;13.10;;;11.37;;
12165;SDS011;6146;48.128;11.476;2024-03-02T13:52:54;13.60;;;11.90;;
12165;SDS011;6146;48.128;11.476;2024-03-02T13:55:20;15.10;;;12.50;;
12165;SDS011;6146;48.128;11.476;2024-03-02T13:57:46;13.13;;;11.70;;
12165;SDS011;6146;48.128;11.476;2024-03-02T14:00:12;14.83;;;12.27;;
12165;SDS011;6146;48.128;11.476;2024-03-02T14:02:38;15.10;;;13.30;;
12165;SDS011;6146;48.128;11.476;2024-03-02T14:05:04;14.97;;;12.83;;
12165;SDS011;6146;48.128;11.476;2024-03-02T14:07:30;14.23;;;12.67;;
12165;SDS011;6146;48.128;11.476;2024-03-02T14:09:56;13.93;;;12.07;;
12165;SDS011;6146;48.128;11.476;2024-03-02T14:12:23;14.17;;;12.53;;
12165;SDS011;6146;48.128;11.476;2024-03-02T14:14:48;16.63;;;12.90;;
12165;SDS011;6146;48.128;11.476;2024-03-02T14:17:16;14.53;;;12.73;;
12165;SDS011;6146;48.128;11.476;2024-03-02T14:19:41;17.37;;;13.60;;
12165;SDS011;6146;48.128;11.476;2024-03-02T14:22:07;16.13;;;13.90;;
12165;SDS011;6146;48.128;11.476;2024-03-02T14:24:32;15.77;;;14.00;;
12165;SDS011;6146;48.128;11.476;2024-03-02T14:26:58;17.80;;;13.87;;
12165;SDS011;6146;48.128;11.476;2024-03-02T14:29:26;17.83;;;13.30;;
12165;SDS011;6146;48.128;11.476;2024-03-02T14:31:52;15.60;;;13.07;;
12165;SDS011;6146;48.128;11.476;2024-03-02T14:34:18;14.00;;;11.80;;
12165;SDS011;6146;48.128;11.476;2024-03-02T14:36:43;15.23;;;11.13;;
12165;SDS011;6146;48.128;11.476;2024-03-02T14:39:09;14.53;;;11.33;;
12165;SDS011;6146;48.128;11.476;2024-03-02T14:41:36;14.07;;;10.37;;
12165;SDS011;6146;48.128;11.476;2024-03-02T14:44:02;15.07;;;11.30;;